createdAt,value
2019-01-03T00:02:27.339Z,9.43
2019-01-03T00:05:30.566Z,10.90
2019-01-03T00:08:21.184Z,12.73
2019-01-03T00:11:12.047Z,12.43
2019-01-03T00:14:06.545Z,13.17
2019-01-03T00:16:56.889Z,7.27
2019-01-03T00:19:54.740Z,7.83
2019-01-03T00:22:44.873Z,15.27
2019-01-03T00:25:39.563Z,14.43
2019-01-03T00:28:39.998Z,13.20
2019-01-03T00:31:30.456Z,15.93
2019-01-03T00:34:32.056Z,11.43
2019-01-03T00:37:23.695Z,10.17
2019-01-03T00:40:18.071Z,8.87
2019-01-03T00:43:24.988Z,7.93
2019-01-03T00:46:13.500Z,8.33
2019-01-03T00:49:05.081Z,7.80
2019-01-03T00:51:46.004Z,7.73
2019-01-03T00:54:52.654Z,8.53
2019-01-03T00:57:42.871Z,5.50
2019-01-03T01:00:30.175Z,6.77
2019-01-03T01:03:20.621Z,8.03
2019-01-03T01:06:15.307Z,10.73
2019-01-03T01:09:05.531Z,7.80
2019-01-03T01:12:12.440Z,6.80
2019-01-03T01:15:02.693Z,8.00
2019-01-03T01:17:53.356Z,9.53
2019-01-03T01:20:45.191Z,7.33
2019-01-03T01:23:45.946Z,7.97
2019-01-03T01:26:36.251Z,8.47
2019-01-03T01:29:30.890Z,8.37
2019-01-03T01:32:25.244Z,9.20
2019-01-03T01:35:28.952Z,9.00
2019-01-03T01:38:14.439Z,6.87
2019-01-03T01:41:06.058Z,4.77
2019-01-03T01:44:00.494Z,5.47
2019-01-03T01:47:00.998Z,8.03
2019-01-03T01:49:55.370Z,7.13
2019-01-03T01:53:02.265Z,7.93
2019-01-03T01:55:56.936Z,11.00
2019-01-03T01:59:03.611Z,6.87
2019-01-03T02:01:53.909Z,10.57
2019-01-03T02:04:40.753Z,8.33
2019-01-03T02:07:31.245Z,7.30
2019-01-03T02:10:22.132Z,5.50
2019-01-03T02:13:12.633Z,6.93
2019-01-03T02:15:59.981Z,7.03
2019-01-03T02:18:50.485Z,5.20
2019-01-03T02:21:41.071Z,7.47
2019-01-03T02:24:31.700Z,6.33
2019-01-03T02:27:41.744Z,7.50
2019-01-03T02:30:33.304Z,6.93
2019-01-03T02:33:23.788Z,5.03
2019-01-03T02:36:11.161Z,6.13
2019-01-03T02:39:01.480Z,6.73
2019-01-03T02:41:59.113Z,6.10
2019-01-03T02:44:50.004Z,5.40
2019-01-03T02:47:40.277Z,7.80
2019-01-03T02:50:44.184Z,8.90
2019-01-03T02:53:53.842Z,9.40
2019-01-03T02:56:45.403Z,13.73
2019-01-03T02:59:51.572Z,10.70
2019-01-03T03:02:40.295Z,8.10
2019-01-03T03:05:35.314Z,6.00
2019-01-03T03:08:26.398Z,6.33
2019-01-03T03:11:16.802Z,6.70
2019-01-03T03:14:14.515Z,5.00
2019-01-03T03:17:24.192Z,5.13
2019-01-03T03:20:17.198Z,5.10
2019-01-03T03:23:11.882Z,6.70
2019-01-03T03:26:01.845Z,5.00
2019-01-03T03:28:50.772Z,5.00
2019-01-03T03:31:45.471Z,5.00
2019-01-03T03:34:46.105Z,7.47
2019-01-03T03:37:46.713Z,5.63
2019-01-03T03:40:36.987Z,6.67
2019-01-03T03:43:43.294Z,6.10
2019-01-03T03:46:34.194Z,7.77
2019-01-03T03:49:24.713Z,7.20
2019-01-03T03:52:16.314Z,7.20
2019-01-03T03:55:06.608Z,6.23
2019-01-03T03:58:13.504Z,5.80
2019-01-03T04:01:03.734Z,6.07
2019-01-03T04:04:10.636Z,5.00
2019-01-03T04:07:17.310Z,5.37
2019-01-03T04:10:11.888Z,6.17
2019-01-03T04:13:10.756Z,6.80
2019-01-03T04:16:07.083Z,5.13
2019-01-03T04:19:07.517Z,5.27
2019-01-03T04:21:57.955Z,5.07
2019-01-03T04:24:55.823Z,5.07
2019-01-03T04:27:50.194Z,6.33
2019-01-03T04:30:41.808Z,4.27
2019-01-03T04:33:48.707Z,4.73
2019-01-03T04:36:40.320Z,6.13
2019-01-03T04:39:31.497Z,4.40
2019-01-03T04:42:32.124Z,6.57
2019-01-03T04:45:23.096Z,7.20
2019-01-03T04:48:27.019Z,8.13
2019-01-03T04:51:17.122Z,9.20
2019-01-03T04:54:10.109Z,13.00
2019-01-03T04:57:00.316Z,10.83
2019-01-03T05:00:02.882Z,19.17
2019-01-03T05:03:00.031Z,17.00
2019-01-03T05:05:50.439Z,10.03
2019-01-03T05:08:40.854Z,14.23
2019-01-03T05:11:27.237Z,7.90
2019-01-03T05:14:31.190Z,11.37
2019-01-03T05:17:37.850Z,9.27
2019-01-03T05:20:35.221Z,6.87
2019-01-03T05:23:45.490Z,8.73
2019-01-03T05:26:42.742Z,14.40
2019-01-03T05:29:42.938Z,28.20
2019-01-03T05:32:40.471Z,57.03
2019-01-03T05:35:32.069Z,36.87
2019-01-03T05:38:22.257Z,37.00
2019-01-03T05:41:29.253Z,30.00
2019-01-03T05:44:23.455Z,33.70
2019-01-03T05:47:13.621Z,21.60
2019-01-03T05:50:04.156Z,19.17
2019-01-03T05:53:05.299Z,16.60
2019-01-03T05:56:09.213Z,12.90
2019-01-03T05:58:54.638Z,10.50
2019-01-03T06:01:40.572Z,14.83
2019-01-03T06:04:34.874Z,14.93
2019-01-03T06:07:35.851Z,14.30
2019-01-03T06:10:27.446Z,14.50
2019-01-03T06:13:24.893Z,11.17
2019-01-03T06:16:16.519Z,16.60
2019-01-03T06:19:17.319Z,12.40
2019-01-03T06:22:11.744Z,11.27
2019-01-03T06:25:11.511Z,6.13
2019-01-03T06:27:59.562Z,10.50
2019-01-03T06:30:51.166Z,9.63
2019-01-03T06:33:43.808Z,9.50
2019-01-03T06:36:36.346Z,9.00
2019-01-03T06:39:23.382Z,13.40
2019-01-03T06:42:13.641Z,26.43
2019-01-03T06:45:04.037Z,27.13
2019-01-03T06:47:54.580Z,16.13
2019-01-03T06:50:46.227Z,13.53
2019-01-03T06:53:43.657Z,8.70
2019-01-03T06:56:33.881Z,10.77
2019-01-03T06:59:28.491Z,8.00
2019-01-03T07:02:16.032Z,7.57
2019-01-03T07:05:06.588Z,6.87
2019-01-03T07:07:57.081Z,7.63
2019-01-03T07:10:44.191Z,8.97
2019-01-03T07:13:38.724Z,10.47
2019-01-03T07:16:39.826Z,11.03
2019-01-03T07:19:37.673Z,11.03
2019-01-03T07:22:20.160Z,9.57
2019-01-03T07:25:10.647Z,9.50
2019-01-03T07:28:05.315Z,12.83
2019-01-03T07:30:56.926Z,10.20
2019-01-03T07:34:00.874Z,9.23
2019-01-03T07:37:11.135Z,11.40
2019-01-03T07:40:07.113Z,8.73
2019-01-03T07:42:58.687Z,11.47
2019-01-03T07:45:49.018Z,11.90
2019-01-03T07:48:43.713Z,10.60
2019-01-03T07:51:35.441Z,12.33
2019-01-03T07:54:36.106Z,12.17
2019-01-03T07:57:36.775Z,11.60
2019-01-03T08:00:34.658Z,11.20
2019-01-03T08:03:24.903Z,10.43
2019-01-03T08:06:26.161Z,8.83
2019-01-03T08:09:16.694Z,8.30
2019-01-03T08:12:03.548Z,10.87
2019-01-03T08:14:58.169Z,12.27
2019-01-03T08:17:55.669Z,12.80
2019-01-03T08:20:56.318Z,9.40
2019-01-03T08:23:50.981Z,11.17
2019-01-03T08:26:41.076Z,9.27
2019-01-03T08:29:35.693Z,12.30
2019-01-03T08:32:33.299Z,11.23
2019-01-03T08:35:23.745Z,11.07
2019-01-03T08:38:24.045Z,12.97
2019-01-03T08:41:24.663Z,10.50
2019-01-03T08:44:19.115Z,10.93
2019-01-03T08:47:12.670Z,11.97
2019-01-03T08:50:10.324Z,11.67
2019-01-03T08:53:04.743Z,11.73
2019-01-03T08:55:59.371Z,15.07
2019-01-03T08:58:53.760Z,11.80
2019-01-03T09:01:44.010Z,14.27
2019-01-03T09:04:34.504Z,16.93
2019-01-03T09:07:24.975Z,11.53
2019-01-03T09:10:21.963Z,13.53
2019-01-03T09:13:24.197Z,13.73
2019-01-03T09:16:11.850Z,12.13
2019-01-03T09:19:02.094Z,10.40
2019-01-03T09:21:52.432Z,13.07
2019-01-03T09:24:42.899Z,18.83
2019-01-03T09:27:39.034Z,16.70
2019-01-03T09:30:29.329Z,13.70
2019-01-03T09:33:39.349Z,12.47
2019-01-03T09:36:26.522Z,13.50
2019-01-03T09:39:21.140Z,16.10
2019-01-03T09:42:11.344Z,14.97
2019-01-03T09:44:43.058Z,15.00
2019-01-03T09:47:15.186Z,15.43
2019-01-03T09:49:47.182Z,16.07
2019-01-03T09:52:19.160Z,15.83
2019-01-03T09:54:51.215Z,18.73
2019-01-03T09:57:23.223Z,16.00
2019-01-03T09:59:55.236Z,14.63
2019-01-03T10:02:27.252Z,16.87
2019-01-03T10:04:59.216Z,19.50
2019-01-03T10:07:31.235Z,16.10
2019-01-03T10:10:04.343Z,17.80
2019-01-03T10:12:36.360Z,18.30
2019-01-03T10:15:08.677Z,18.03
2019-01-03T10:17:40.693Z,17.33
2019-01-03T10:20:12.727Z,13.03
2019-01-03T10:26:24.351Z,15.97
2019-01-03T10:28:56.416Z,13.60
2019-01-03T10:31:28.452Z,19.47
2019-01-03T10:34:00.460Z,14.07
2019-01-03T10:36:32.478Z,17.00
2019-01-03T10:39:06.603Z,13.23
2019-01-03T10:41:38.643Z,20.37
2019-01-03T10:44:10.632Z,13.33
2019-01-03T10:46:42.634Z,17.23
2019-01-03T10:49:14.693Z,16.43
2019-01-03T10:51:46.797Z,16.60
2019-01-03T10:54:18.788Z,16.43
2019-01-03T10:56:50.825Z,17.63
2019-01-03T10:59:22.815Z,15.50
2019-01-03T11:01:54.834Z,17.77
2019-01-03T11:04:26.846Z,15.47
2019-01-03T11:06:58.837Z,14.63
2019-01-03T11:09:30.861Z,13.93
2019-01-03T11:12:02.942Z,13.43
2019-01-03T11:14:34.971Z,15.03
2019-01-03T11:17:06.954Z,17.87
2019-01-03T11:19:38.951Z,12.90
2019-01-03T11:22:10.952Z,13.70
2019-01-03T11:24:42.941Z,13.33
2019-01-03T11:27:14.939Z,13.10
2019-01-03T11:29:46.993Z,14.07
2019-01-03T11:32:18.985Z,16.27
2019-01-03T11:34:50.983Z,12.00
2019-01-03T11:37:22.954Z,17.03
2019-01-03T11:39:54.970Z,14.30
2019-01-03T11:42:26.993Z,12.37
2019-01-03T11:44:59.007Z,9.57
2019-01-03T11:47:30.990Z,10.33
2019-01-03T11:50:03.195Z,10.73
2019-01-03T11:52:35.231Z,10.97
2019-01-03T11:55:07.256Z,10.03
2019-01-03T11:57:39.309Z,8.13
2019-01-03T12:00:11.379Z,11.80
2019-01-03T12:02:43.365Z,9.37
2019-01-03T12:05:15.433Z,11.47
2019-01-03T12:07:47.431Z,12.00
2019-01-03T12:10:19.477Z,9.97
2019-01-03T12:12:51.484Z,12.30
2019-01-03T12:15:23.626Z,12.83
2019-01-03T12:17:55.638Z,11.90
2019-01-03T12:20:27.665Z,9.90
2019-01-03T12:22:59.640Z,10.67
2019-01-03T12:25:31.665Z,10.00
2019-01-03T12:28:03.695Z,10.53
2019-01-03T12:30:35.711Z,9.13
2019-01-03T12:33:07.733Z,10.97
2019-01-03T12:35:39.729Z,10.50
2019-01-03T12:38:11.770Z,10.10
2019-01-03T12:40:43.767Z,7.60
2019-01-03T12:43:15.747Z,9.50
2019-01-03T12:45:47.770Z,9.47
2019-01-03T12:48:19.808Z,9.47
2019-01-03T12:50:51.825Z,8.03
2019-01-03T12:53:23.877Z,11.50
2019-01-03T12:55:55.848Z,11.13
2019-01-03T12:58:27.913Z,10.87
2019-01-03T13:00:59.902Z,10.43
2019-01-03T13:03:31.938Z,10.03
2019-01-03T13:06:03.945Z,8.10
2019-01-03T13:08:36.315Z,11.97
2019-01-03T13:11:08.379Z,16.63
2019-01-03T13:13:40.434Z,19.50
2019-01-03T13:16:12.526Z,12.77
2019-01-03T13:18:44.550Z,10.47
2019-01-03T13:21:16.559Z,8.20
2019-01-03T13:23:48.568Z,10.83
2019-01-03T13:26:20.630Z,10.87
2019-01-03T13:28:52.687Z,8.60
2019-01-03T13:31:24.667Z,10.27
2019-01-03T13:33:56.704Z,9.53
2019-01-03T13:36:28.730Z,10.90
2019-01-03T13:39:00.764Z,10.87
2019-01-03T13:41:32.745Z,8.53
2019-01-03T13:44:04.757Z,10.73
2019-01-03T13:46:36.765Z,10.20
2019-01-03T13:49:08.790Z,9.20
2019-01-03T13:51:40.912Z,7.83
2019-01-03T13:54:12.954Z,8.93
2019-01-03T13:56:44.957Z,7.33
2019-01-03T13:59:16.965Z,10.10
2019-01-03T14:01:48.940Z,10.60
2019-01-03T14:04:20.962Z,8.80
2019-01-03T14:06:52.985Z,9.27
2019-01-03T14:09:25.127Z,10.90
2019-01-03T14:11:57.176Z,9.07
2019-01-03T14:14:29.230Z,9.80
2019-01-03T14:17:01.288Z,11.37
2019-01-03T14:19:33.322Z,11.10
2019-01-03T14:22:05.352Z,9.27
2019-01-03T14:24:37.420Z,9.37
2019-01-03T14:27:09.438Z,10.97
2019-01-03T14:29:41.500Z,12.27
2019-01-03T14:32:13.574Z,10.43
2019-01-03T14:34:45.562Z,12.57
2019-01-03T14:37:17.581Z,10.60
2019-01-03T14:39:49.594Z,10.80
2019-01-03T14:42:21.640Z,14.03
2019-01-03T14:44:53.653Z,8.90
2019-01-03T14:47:25.690Z,11.93
2019-01-03T14:49:57.703Z,12.53
2019-01-03T14:52:29.753Z,12.77
2019-01-03T14:55:01.776Z,13.67
2019-01-03T14:57:33.816Z,14.47
2019-01-03T15:03:00.521Z,13.73
2019-01-03T15:05:32.525Z,11.87
2019-01-03T15:08:04.554Z,11.40
2019-01-03T15:10:36.583Z,14.33
2019-01-03T15:13:08.651Z,16.33
2019-01-03T15:15:40.643Z,13.10
2019-01-03T15:18:12.771Z,15.63
2019-01-03T15:20:44.784Z,13.93
2019-01-03T15:23:57.686Z,15.30
2019-01-03T15:26:29.675Z,13.20
2019-01-03T15:29:01.706Z,16.90
2019-01-03T15:31:33.764Z,13.40
2019-01-03T15:34:05.787Z,15.57
2019-01-03T15:36:37.803Z,11.00
2019-01-03T15:39:09.838Z,12.37
2019-01-03T15:41:41.826Z,16.83
2019-01-03T15:44:13.883Z,16.40
2019-01-03T15:46:45.927Z,17.90
2019-01-03T15:49:17.988Z,13.17
2019-01-03T15:51:49.971Z,13.47
2019-01-03T15:54:22.028Z,13.67
2019-01-03T15:56:54.030Z,12.37
2019-01-03T15:59:26.065Z,17.93
2019-01-03T16:01:58.090Z,14.90
2019-01-03T16:04:30.132Z,13.17
2019-01-03T16:07:02.243Z,13.17
2019-01-03T16:09:34.314Z,18.27
2019-01-03T16:12:06.318Z,14.37
2019-01-03T16:14:38.391Z,14.37
2019-01-03T16:17:10.439Z,21.27
2019-01-03T16:19:42.489Z,24.83
2019-01-03T16:22:14.489Z,26.83
2019-01-03T16:24:46.602Z,26.23
2019-01-03T16:27:18.680Z,25.93
2019-01-03T16:29:51.523Z,21.37
2019-01-03T16:32:24.772Z,21.80
2019-01-03T16:34:56.779Z,22.97
2019-01-03T16:37:28.773Z,22.80
2019-01-03T16:40:20.282Z,20.67
2019-01-03T16:42:52.326Z,17.37
2019-01-03T16:45:24.386Z,17.73
2019-01-03T16:47:56.453Z,23.57
2019-01-03T16:50:28.485Z,19.93
2019-01-03T16:53:00.598Z,18.67
2019-01-03T16:55:32.686Z,18.10
2019-01-03T16:58:04.736Z,22.40
2019-01-03T17:00:36.801Z,20.07
2019-01-03T17:03:08.795Z,22.07
2019-01-03T17:05:40.966Z,22.63
2019-01-03T17:08:12.989Z,21.27
2019-01-03T17:10:45.007Z,27.77
2019-01-03T17:13:17.062Z,19.80
2019-01-03T17:15:49.190Z,25.33
2019-01-03T17:18:21.291Z,25.90
2019-01-03T17:20:53.264Z,25.60
2019-01-03T17:23:25.260Z,26.33
2019-01-03T17:25:57.298Z,27.77
2019-01-03T17:28:29.358Z,24.10
2019-01-03T17:31:01.376Z,20.53
2019-01-03T17:33:33.404Z,21.43
2019-01-03T17:36:05.500Z,28.03
2019-01-03T17:38:37.555Z,25.97
2019-01-03T17:41:09.535Z,31.93
2019-01-03T17:43:41.581Z,38.67
2019-01-03T17:46:13.641Z,34.13
2019-01-03T17:48:45.671Z,45.37
2019-01-03T17:51:17.711Z,37.30
2019-01-03T17:53:49.759Z,48.47
2019-01-03T17:56:21.758Z,43.60
2019-01-03T17:58:53.821Z,47.57
2019-01-03T18:01:25.858Z,38.93
2019-01-03T18:03:57.958Z,36.63
2019-01-03T18:06:29.993Z,39.57
2019-01-03T18:09:02.195Z,43.40
2019-01-03T18:11:34.209Z,43.97
2019-01-03T18:14:06.242Z,32.40
2019-01-03T18:16:38.249Z,32.80
2019-01-03T18:19:10.311Z,28.97
2019-01-03T18:21:42.324Z,35.50
2019-01-03T18:24:14.349Z,35.80
2019-01-03T18:26:46.374Z,31.77
2019-01-03T18:29:18.519Z,46.47
2019-01-03T18:31:50.578Z,44.03
2019-01-03T18:34:22.625Z,37.57
2019-01-03T18:36:54.672Z,41.73
2019-01-03T18:39:26.730Z,41.93
2019-01-03T18:41:58.787Z,34.37
2019-01-03T18:44:31.341Z,31.97
2019-01-03T18:47:03.424Z,37.60
2019-01-03T18:49:35.419Z,31.80
2019-01-03T18:52:07.499Z,36.60
2019-01-03T18:54:39.524Z,53.10
2019-01-03T18:57:11.593Z,43.43
2019-01-03T18:59:43.691Z,44.93
2019-01-03T19:02:15.773Z,61.00
2019-01-03T19:04:47.783Z,57.20
2019-01-03T19:07:19.818Z,51.10
2019-01-03T19:09:51.887Z,53.47
2019-01-03T19:12:24.005Z,47.73
2019-01-03T19:14:56.073Z,44.67
2019-01-03T19:17:28.122Z,41.13
2019-01-03T19:20:00.263Z,35.70
2019-01-03T19:22:32.327Z,47.40
2019-01-03T19:25:06.812Z,42.90
2019-01-03T19:27:38.923Z,42.43
2019-01-03T19:30:11.034Z,38.63
2019-01-03T19:32:43.127Z,41.67
2019-01-03T19:35:15.195Z,46.50
2019-01-03T19:37:47.249Z,41.90
2019-01-03T19:40:19.310Z,43.27
2019-01-03T19:42:51.369Z,40.53
2019-01-03T19:45:23.353Z,44.97
2019-01-03T19:47:55.477Z,40.67
2019-01-03T19:50:27.530Z,39.17
2019-01-03T19:52:59.663Z,41.20
2019-01-03T19:55:31.789Z,44.63
2019-01-03T19:58:03.927Z,46.17
2019-01-03T20:00:35.992Z,37.60
2019-01-03T20:03:08.139Z,39.37
2019-01-03T20:05:40.224Z,38.13
2019-01-03T20:08:12.375Z,39.53
2019-01-03T20:10:44.403Z,39.40
2019-01-03T20:13:16.539Z,32.00
2019-01-03T20:15:48.927Z,38.13
2019-01-03T20:18:21.313Z,42.87
2019-01-03T20:20:53.429Z,43.50
2019-01-03T20:23:25.501Z,41.90
2019-01-03T20:25:57.562Z,42.10
2019-01-03T20:28:29.617Z,40.50
2019-01-03T20:31:01.680Z,44.30
2019-01-03T20:33:33.831Z,37.10
2019-01-03T20:36:05.972Z,41.47
2019-01-03T20:38:38.073Z,36.57
2019-01-03T20:41:10.218Z,39.50
2019-01-03T20:43:42.430Z,43.93
2019-01-03T20:46:14.542Z,38.13
2019-01-03T20:48:46.705Z,44.80
2019-01-03T20:51:18.800Z,44.37
2019-01-03T20:53:50.864Z,41.47
2019-01-03T20:56:22.995Z,44.23
2019-01-03T20:58:54.980Z,41.93
2019-01-03T21:01:27.193Z,39.87
2019-01-03T21:03:59.294Z,40.00
2019-01-03T21:06:31.425Z,42.00
2019-01-03T21:09:44.279Z,45.37
2019-01-03T21:12:16.357Z,58.93
2019-01-03T21:14:48.415Z,64.50
2019-01-03T21:17:20.523Z,48.70
2019-01-03T21:19:52.613Z,38.97
2019-01-03T21:22:24.800Z,42.43
2019-01-03T21:24:56.859Z,38.50
2019-01-03T21:27:28.958Z,36.60
2019-01-03T21:30:01.002Z,40.17
2019-01-03T21:32:33.103Z,35.43
2019-01-03T21:35:05.192Z,37.43
2019-01-03T21:37:37.286Z,33.10
2019-01-03T21:40:10.390Z,30.20
2019-01-03T21:42:42.488Z,39.77
2019-01-03T21:45:14.592Z,41.80
2019-01-03T21:47:46.665Z,35.73
2019-01-03T21:50:18.731Z,33.13
2019-01-03T21:52:50.776Z,34.43
2019-01-03T21:55:22.783Z,41.30
2019-01-03T21:57:54.854Z,42.87
2019-01-03T22:00:27.036Z,39.10
2019-01-03T22:02:59.084Z,42.07
2019-01-03T22:05:31.169Z,39.30
2019-01-03T22:08:03.235Z,40.03
2019-01-03T22:10:35.329Z,40.40
2019-01-03T22:13:07.437Z,42.03
2019-01-03T22:15:39.526Z,42.07
2019-01-03T22:18:11.671Z,39.40
2019-01-03T22:20:43.747Z,40.67
2019-01-03T22:23:15.811Z,34.70
2019-01-03T22:25:47.887Z,36.77
2019-01-03T22:28:19.955Z,39.77
2019-01-03T22:30:52.002Z,38.70
2019-01-03T22:33:24.063Z,37.57
2019-01-03T22:35:56.104Z,40.47
2019-01-03T22:38:28.152Z,42.17
2019-01-03T22:41:00.219Z,39.70
2019-01-03T22:43:32.239Z,38.93
2019-01-03T22:48:42.379Z,38.97
2019-01-03T22:51:19.958Z,36.47
2019-01-03T22:53:48.488Z,33.03
2019-01-03T22:56:20.567Z,31.10
2019-01-03T22:58:52.568Z,35.67
2019-01-03T23:01:24.618Z,44.00
2019-01-03T23:03:56.608Z,38.73
2019-01-03T23:06:28.626Z,43.43
2019-01-03T23:09:00.712Z,39.97
2019-01-03T23:11:32.819Z,38.37
2019-01-03T23:14:04.813Z,34.80
2019-01-03T23:16:36.896Z,36.03
2019-01-03T23:19:08.877Z,30.27
2019-01-03T23:21:40.915Z,32.67
2019-01-03T23:24:12.975Z,41.03
2019-01-03T23:26:45.036Z,36.30
2019-01-03T23:29:17.042Z,36.77
2019-01-03T23:31:49.220Z,36.60
2019-01-03T23:34:21.217Z,33.80
2019-01-03T23:36:53.236Z,35.80
2019-01-03T23:39:44.692Z,36.40
2019-01-03T23:42:16.714Z,36.23
2019-01-03T23:45:27.651Z,36.27
2019-01-03T23:48:00.578Z,34.47
2019-01-03T23:50:33.845Z,39.57
2019-01-03T23:53:05.884Z,35.37
2019-01-03T23:56:19.945Z,38.50
2019-01-03T23:58:51.988Z,37.90
